Butterworth Airport Butterworth MY
ICAO: WMKB
IATA:
Category: Medium
Scheduled Services:

Elevation: 11 ft
TransAlt. 11000 ft.

Airport Communications:
APP:125.8
ATIS:23.01
DEP:128.5
GND:134.6
TWR:118.3

WMKB Zoom In..

If you have problems with the map follow the link
https://www.worldairports.se/pages/airport.php?
ICAO=WMKB

Runways:

(A) RW 18 length 7999 ft width 150 ft
---- / hdg 184

(B) RW 36 length 7999 ft width 150 ft
---- / hdg 4

Location; WMKB
Day. 05 / Time. 15.00 Zulu
* QNH: 1012
* Temperature: 27° c. 80.6°f.
* Wind from: 050° Speed 05 kn.
Dewpoint: 25° c.
Visibility: 8000 m.
Clouds: Few 2400 ft.
Conditions: Light Rain. No significant changes expected in the near future.

WMKB 051500Z 05005KT 350V090 8000 -RA FEW024 27/25 Q1012 NOSIG


Wind From 050°
Speed 05 kn.

 
 
jpsmedia worldairports.se 2019   terms of use